sensor_id;sensor_type;location;lat;lon;timestamp;P1;durP1;ratioP1;P2;durP2;ratioP2
80698;SDS011;70062;51.658;5.658;2023-11-21T00:02:05;7.20;;;3.50;;
80698;SDS011;70062;51.658;5.658;2023-11-21T00:04:31;4.90;;;3.10;;
80698;SDS011;70062;51.658;5.658;2023-11-21T00:06:56;5.70;;;3.30;;
80698;SDS011;70062;51.658;5.658;2023-11-21T00:09:22;5.00;;;3.30;;
80698;SDS011;70062;51.658;5.658;2023-11-21T00:11:48;4.10;;;2.90;;
80698;SDS011;70062;51.658;5.658;2023-11-21T00:14:13;5.10;;;3.20;;
80698;SDS011;70062;51.658;5.658;2023-11-21T00:16:40;5.20;;;3.00;;
80698;SDS011;70062;51.658;5.658;2023-11-21T00:19:06;4.80;;;3.10;;
80698;SDS011;70062;51.658;5.658;2023-11-21T00:21:32;4.70;;;3.30;;
80698;SDS011;70062;51.658;5.658;2023-11-21T00:23:58;5.40;;;3.00;;
80698;SDS011;70062;51.658;5.658;2023-11-21T00:26:23;5.60;;;3.30;;
80698;SDS011;70062;51.658;5.658;2023-11-21T00:28:49;8.50;;;3.90;;
80698;SDS011;70062;51.658;5.658;2023-11-21T00:31:15;3.90;;;3.00;;
80698;SDS011;70062;51.658;5.658;2023-11-21T00:33:40;5.30;;;3.60;;
80698;SDS011;70062;51.658;5.658;2023-11-21T00:36:06;5.00;;;3.20;;
80698;SDS011;70062;51.658;5.658;2023-11-21T00:38:35;5.90;;;3.50;;
80698;SDS011;70062;51.658;5.658;2023-11-21T00:41:02;5.80;;;3.70;;
80698;SDS011;70062;51.658;5.658;2023-11-21T00:43:37;6.00;;;3.80;;
80698;SDS011;70062;51.658;5.658;2023-11-21T00:46:05;4.80;;;3.20;;
80698;SDS011;70062;51.658;5.658;2023-11-21T00:48:34;5.10;;;3.50;;
80698;SDS011;70062;51.658;5.658;2023-11-21T00:50:59;4.60;;;3.10;;
80698;SDS011;70062;51.658;5.658;2023-11-21T00:53:25;5.10;;;3.60;;
80698;SDS011;70062;51.658;5.658;2023-11-21T00:55:50;5.10;;;3.50;;
80698;SDS011;70062;51.658;5.658;2023-11-21T00:58:22;4.90;;;3.30;;
80698;SDS011;70062;51.658;5.658;2023-11-21T01:00:48;4.90;;;3.60;;
80698;SDS011;70062;51.658;5.658;2023-11-21T01:03:13;4.40;;;3.20;;
80698;SDS011;70062;51.658;5.658;2023-11-21T01:05:38;4.60;;;3.40;;
80698;SDS011;70062;51.658;5.658;2023-11-21T01:08:04;4.60;;;3.40;;
80698;SDS011;70062;51.658;5.658;2023-11-21T01:13:46;5.90;;;3.80;;
80698;SDS011;70062;51.658;5.658;2023-11-21T01:16:11;3.90;;;3.00;;
80698;SDS011;70062;51.658;5.658;2023-11-21T01:18:40;4.80;;;3.40;;
80698;SDS011;70062;51.658;5.658;2023-11-21T01:21:06;5.50;;;3.40;;
80698;SDS011;70062;51.658;5.658;2023-11-21T01:23:32;5.40;;;3.50;;
80698;SDS011;70062;51.658;5.658;2023-11-21T01:25:58;4.50;;;3.20;;
80698;SDS011;70062;51.658;5.658;2023-11-21T01:28:23;4.40;;;3.50;;
80698;SDS011;70062;51.658;5.658;2023-11-21T01:30:49;4.70;;;3.50;;
80698;SDS011;70062;51.658;5.658;2023-11-21T01:33:15;4.90;;;3.30;;
80698;SDS011;70062;51.658;5.658;2023-11-21T01:35:44;5.30;;;3.60;;
80698;SDS011;70062;51.658;5.658;2023-11-21T01:38:11;6.20;;;3.70;;
80698;SDS011;70062;51.658;5.658;2023-11-21T01:40:39;5.20;;;3.30;;
80698;SDS011;70062;51.658;5.658;2023-11-21T01:43:04;6.30;;;3.90;;
80698;SDS011;70062;51.658;5.658;2023-11-21T01:45:29;4.80;;;3.70;;
80698;SDS011;70062;51.658;5.658;2023-11-21T01:50:24;4.30;;;3.40;;
80698;SDS011;70062;51.658;5.658;2023-11-21T01:52:50;4.60;;;3.30;;
80698;SDS011;70062;51.658;5.658;2023-11-21T01:55:16;6.00;;;3.70;;
80698;SDS011;70062;51.658;5.658;2023-11-21T01:57:45;6.10;;;3.70;;
80698;SDS011;70062;51.658;5.658;2023-11-21T02:00:12;4.70;;;3.40;;
80698;SDS011;70062;51.658;5.658;2023-11-21T02:02:45;6.00;;;3.80;;
80698;SDS011;70062;51.658;5.658;2023-11-21T02:05:12;5.70;;;3.50;;
80698;SDS011;70062;51.658;5.658;2023-11-21T02:07:39;4.40;;;3.50;;
80698;SDS011;70062;51.658;5.658;2023-11-21T02:10:06;6.10;;;3.60;;
80698;SDS011;70062;51.658;5.658;2023-11-21T02:12:32;4.90;;;3.30;;
80698;SDS011;70062;51.658;5.658;2023-11-21T02:14:59;5.00;;;3.60;;
80698;SDS011;70062;51.658;5.658;2023-11-21T02:17:24;4.20;;;3.30;;
80698;SDS011;70062;51.658;5.658;2023-11-21T02:19:50;5.40;;;3.50;;
80698;SDS011;70062;51.658;5.658;2023-11-21T02:22:17;5.00;;;3.40;;
80698;SDS011;70062;51.658;5.658;2023-11-21T02:24:45;5.90;;;3.30;;
80698;SDS011;70062;51.658;5.658;2023-11-21T02:27:12;4.80;;;3.50;;
80698;SDS011;70062;51.658;5.658;2023-11-21T02:29:38;5.10;;;3.50;;
80698;SDS011;70062;51.658;5.658;2023-11-21T02:32:03;5.00;;;3.50;;
80698;SDS011;70062;51.658;5.658;2023-11-21T02:34:29;5.10;;;3.40;;
80698;SDS011;70062;51.658;5.658;2023-11-21T02:36:54;4.40;;;3.40;;
80698;SDS011;70062;51.658;5.658;2023-11-21T02:39:20;5.80;;;3.50;;
80698;SDS011;70062;51.658;5.658;2023-11-21T02:41:47;5.30;;;3.60;;
80698;SDS011;70062;51.658;5.658;2023-11-21T02:44:13;4.50;;;3.60;;
80698;SDS011;70062;51.658;5.658;2023-11-21T02:46:38;5.50;;;4.00;;
80698;SDS011;70062;51.658;5.658;2023-11-21T02:49:04;5.30;;;3.60;;
80698;SDS011;70062;51.658;5.658;2023-11-21T02:51:35;5.00;;;3.50;;
80698;SDS011;70062;51.658;5.658;2023-11-21T02:54:00;5.80;;;3.60;;
80698;SDS011;70062;51.658;5.658;2023-11-21T02:56:28;5.40;;;3.70;;
80698;SDS011;70062;51.658;5.658;2023-11-21T02:58:57;4.40;;;3.20;;
80698;SDS011;70062;51.658;5.658;2023-11-21T03:01:22;6.40;;;3.80;;
80698;SDS011;70062;51.658;5.658;2023-11-21T03:03:49;5.00;;;3.40;;
80698;SDS011;70062;51.658;5.658;2023-11-21T03:06:16;5.30;;;3.60;;
80698;SDS011;70062;51.658;5.658;2023-11-21T03:08:43;5.20;;;3.40;;
80698;SDS011;70062;51.658;5.658;2023-11-21T03:11:08;5.50;;;3.60;;
80698;SDS011;70062;51.658;5.658;2023-11-21T03:13:34;4.40;;;3.10;;
80698;SDS011;70062;51.658;5.658;2023-11-21T03:15:59;4.90;;;3.20;;
80698;SDS011;70062;51.658;5.658;2023-11-21T03:18:24;4.20;;;3.20;;
80698;SDS011;70062;51.658;5.658;2023-11-21T03:20:51;5.10;;;3.50;;
80698;SDS011;70062;51.658;5.658;2023-11-21T03:23:17;5.00;;;3.60;;
80698;SDS011;70062;51.658;5.658;2023-11-21T03:25:43;4.40;;;3.50;;
80698;SDS011;70062;51.658;5.658;2023-11-21T03:28:08;4.40;;;3.40;;
80698;SDS011;70062;51.658;5.658;2023-11-21T03:30:34;4.40;;;3.40;;
80698;SDS011;70062;51.658;5.658;2023-11-21T03:32:59;5.50;;;3.60;;
80698;SDS011;70062;51.658;5.658;2023-11-21T03:35:24;5.60;;;3.50;;
80698;SDS011;70062;51.658;5.658;2023-11-21T03:37:50;4.20;;;3.30;;
80698;SDS011;70062;51.658;5.658;2023-11-21T03:40:15;5.20;;;3.50;;
80698;SDS011;70062;51.658;5.658;2023-11-21T03:42:40;5.00;;;3.80;;
80698;SDS011;70062;51.658;5.658;2023-11-21T03:45:07;4.50;;;3.30;;
80698;SDS011;70062;51.658;5.658;2023-11-21T03:47:33;5.50;;;3.60;;
80698;SDS011;70062;51.658;5.658;2023-11-21T03:49:59;4.90;;;3.50;;
80698;SDS011;70062;51.658;5.658;2023-11-21T03:52:24;4.50;;;3.10;;
80698;SDS011;70062;51.658;5.658;2023-11-21T03:54:50;4.60;;;3.20;;
80698;SDS011;70062;51.658;5.658;2023-11-21T03:57:15;5.00;;;3.60;;
80698;SDS011;70062;51.658;5.658;2023-11-21T03:59:41;5.20;;;3.60;;
80698;SDS011;70062;51.658;5.658;2023-11-21T04:02:08;5.10;;;3.50;;
80698;SDS011;70062;51.658;5.658;2023-11-21T04:04:34;4.10;;;3.00;;
80698;SDS011;70062;51.658;5.658;2023-11-21T04:07:00;4.70;;;3.30;;
80698;SDS011;70062;51.658;5.658;2023-11-21T04:09:25;4.80;;;3.10;;
80698;SDS011;70062;51.658;5.658;2023-11-21T04:11:51;4.30;;;3.20;;
80698;SDS011;70062;51.658;5.658;2023-11-21T04:14:17;4.30;;;3.40;;
80698;SDS011;70062;51.658;5.658;2023-11-21T04:16:42;4.60;;;3.10;;
80698;SDS011;70062;51.658;5.658;2023-11-21T04:19:08;3.90;;;3.30;;
80698;SDS011;70062;51.658;5.658;2023-11-21T04:21:39;4.20;;;3.40;;
80698;SDS011;70062;51.658;5.658;2023-11-21T04:24:08;4.20;;;3.20;;
80698;SDS011;70062;51.658;5.658;2023-11-21T04:26:34;3.90;;;3.20;;
80698;SDS011;70062;51.658;5.658;2023-11-21T04:28:59;4.00;;;3.20;;
80698;SDS011;70062;51.658;5.658;2023-11-21T04:31:24;4.90;;;3.50;;
80698;SDS011;70062;51.658;5.658;2023-11-21T04:33:50;4.80;;;3.30;;
80698;SDS011;70062;51.658;5.658;2023-11-21T04:36:15;4.60;;;3.50;;
80698;SDS011;70062;51.658;5.658;2023-11-21T04:38:40;5.70;;;3.60;;
80698;SDS011;70062;51.658;5.658;2023-11-21T04:41:06;3.90;;;3.10;;
80698;SDS011;70062;51.658;5.658;2023-11-21T04:43:31;4.50;;;3.30;;
80698;SDS011;70062;51.658;5.658;2023-11-21T04:45:56;3.90;;;3.30;;
80698;SDS011;70062;51.658;5.658;2023-11-21T04:48:22;5.20;;;3.30;;
80698;SDS011;70062;51.658;5.658;2023-11-21T04:50:47;4.80;;;3.60;;
80698;SDS011;70062;51.658;5.658;2023-11-21T04:53:12;4.90;;;3.70;;
80698;SDS011;70062;51.658;5.658;2023-11-21T04:55:39;4.30;;;3.30;;
80698;SDS011;70062;51.658;5.658;2023-11-21T04:58:05;4.70;;;3.60;;
80698;SDS011;70062;51.658;5.658;2023-11-21T05:00:31;4.60;;;3.30;;
80698;SDS011;70062;51.658;5.658;2023-11-21T05:02:56;3.90;;;3.00;;
80698;SDS011;70062;51.658;5.658;2023-11-21T05:05:22;4.00;;;3.10;;
80698;SDS011;70062;51.658;5.658;2023-11-21T05:07:47;3.80;;;3.10;;
80698;SDS011;70062;51.658;5.658;2023-11-21T05:10:14;4.20;;;3.40;;
80698;SDS011;70062;51.658;5.658;2023-11-21T05:12:40;4.30;;;3.50;;
80698;SDS011;70062;51.658;5.658;2023-11-21T05:15:06;5.60;;;3.30;;
80698;SDS011;70062;51.658;5.658;2023-11-21T05:17:36;4.50;;;3.80;;
80698;SDS011;70062;51.658;5.658;2023-11-21T05:20:04;4.10;;;3.30;;
80698;SDS011;70062;51.658;5.658;2023-11-21T05:22:33;4.40;;;3.20;;
80698;SDS011;70062;51.658;5.658;2023-11-21T05:24:59;4.30;;;3.10;;
80698;SDS011;70062;51.658;5.658;2023-11-21T05:27:25;4.30;;;3.10;;
80698;SDS011;70062;51.658;5.658;2023-11-21T05:29:50;4.70;;;3.50;;
80698;SDS011;70062;51.658;5.658;2023-11-21T05:32:15;3.70;;;3.20;;
80698;SDS011;70062;51.658;5.658;2023-11-21T05:34:42;4.80;;;3.20;;
80698;SDS011;70062;51.658;5.658;2023-11-21T05:37:08;4.30;;;3.20;;
80698;SDS011;70062;51.658;5.658;2023-11-21T05:39:33;4.80;;;3.30;;
80698;SDS011;70062;51.658;5.658;2023-11-21T05:41:58;3.70;;;3.10;;
80698;SDS011;70062;51.658;5.658;2023-11-21T05:44:25;3.90;;;3.10;;
80698;SDS011;70062;51.658;5.658;2023-11-21T05:46:50;4.00;;;3.20;;
80698;SDS011;70062;51.658;5.658;2023-11-21T05:49:15;4.00;;;3.10;;
80698;SDS011;70062;51.658;5.658;2023-11-21T05:51:41;3.90;;;3.10;;
80698;SDS011;70062;51.658;5.658;2023-11-21T05:54:07;5.70;;;3.30;;
80698;SDS011;70062;51.658;5.658;2023-11-21T05:56:33;4.60;;;3.30;;
80698;SDS011;70062;51.658;5.658;2023-11-21T05:58:59;3.70;;;3.10;;
80698;SDS011;70062;51.658;5.658;2023-11-21T06:01:24;4.20;;;3.40;;
80698;SDS011;70062;51.658;5.658;2023-11-21T06:03:53;4.60;;;3.60;;
80698;SDS011;70062;51.658;5.658;2023-11-21T06:06:20;4.10;;;3.00;;
80698;SDS011;70062;51.658;5.658;2023-11-21T06:08:48;3.80;;;3.00;;
80698;SDS011;70062;51.658;5.658;2023-11-21T06:11:13;3.60;;;3.20;;
80698;SDS011;70062;51.658;5.658;2023-11-21T06:13:39;3.20;;;2.90;;
80698;SDS011;70062;51.658;5.658;2023-11-21T06:16:04;3.90;;;3.00;;
80698;SDS011;70062;51.658;5.658;2023-11-21T06:18:30;3.60;;;2.90;;
80698;SDS011;70062;51.658;5.658;2023-11-21T06:20:55;3.90;;;3.10;;
80698;SDS011;70062;51.658;5.658;2023-11-21T06:23:21;3.20;;;2.90;;
80698;SDS011;70062;51.658;5.658;2023-11-21T06:25:46;3.70;;;3.10;;
80698;SDS011;70062;51.658;5.658;2023-11-21T06:28:12;4.20;;;3.30;;
80698;SDS011;70062;51.658;5.658;2023-11-21T06:30:37;4.90;;;3.30;;
80698;SDS011;70062;51.658;5.658;2023-11-21T06:33:03;3.60;;;3.00;;
80698;SDS011;70062;51.658;5.658;2023-11-21T06:35:28;4.20;;;3.30;;
80698;SDS011;70062;51.658;5.658;2023-11-21T06:37:55;3.90;;;3.20;;
80698;SDS011;70062;51.658;5.658;2023-11-21T06:40:20;3.80;;;3.10;;
80698;SDS011;70062;51.658;5.658;2023-11-21T06:42:46;3.80;;;3.20;;
80698;SDS011;70062;51.658;5.658;2023-11-21T06:45:12;4.10;;;3.10;;
80698;SDS011;70062;51.658;5.658;2023-11-21T06:47:38;4.00;;;3.30;;
80698;SDS011;70062;51.658;5.658;2023-11-21T06:50:04;4.00;;;3.20;;
80698;SDS011;70062;51.658;5.658;2023-11-21T06:52:31;4.30;;;3.30;;
80698;SDS011;70062;51.658;5.658;2023-11-21T06:54:57;3.50;;;3.10;;
80698;SDS011;70062;51.658;5.658;2023-11-21T06:57:22;3.40;;;2.70;;
80698;SDS011;70062;51.658;5.658;2023-11-21T06:59:49;4.30;;;3.00;;
80698;SDS011;70062;51.658;5.658;2023-11-21T07:02:15;3.90;;;3.20;;
80698;SDS011;70062;51.658;5.658;2023-11-21T07:04:44;3.40;;;2.70;;
80698;SDS011;70062;51.658;5.658;2023-11-21T07:07:17;4.10;;;3.20;;
80698;SDS011;70062;51.658;5.658;2023-11-21T07:09:43;3.70;;;3.00;;
80698;SDS011;70062;51.658;5.658;2023-11-21T07:12:09;3.10;;;2.50;;
80698;SDS011;70062;51.658;5.658;2023-11-21T07:14:36;3.40;;;2.60;;
80698;SDS011;70062;51.658;5.658;2023-11-21T07:17:04;3.00;;;2.50;;
80698;SDS011;70062;51.658;5.658;2023-11-21T07:19:29;3.50;;;2.70;;
80698;SDS011;70062;51.658;5.658;2023-11-21T07:21:55;6.00;;;2.80;;
80698;SDS011;70062;51.658;5.658;2023-11-21T07:24:21;3.30;;;2.20;;
80698;SDS011;70062;51.658;5.658;2023-11-21T07:26:48;4.10;;;2.60;;
80698;SDS011;70062;51.658;5.658;2023-11-21T07:29:13;4.00;;;2.80;;
80698;SDS011;70062;51.658;5.658;2023-11-21T07:31:39;3.40;;;2.20;;
80698;SDS011;70062;51.658;5.658;2023-11-21T07:34:06;4.00;;;2.80;;
80698;SDS011;70062;51.658;5.658;2023-11-21T07:36:32;3.40;;;2.50;;
80698;SDS011;70062;51.658;5.658;2023-11-21T07:38:58;5.00;;;2.80;;
80698;SDS011;70062;51.658;5.658;2023-11-21T07:41:23;3.20;;;2.40;;
80698;SDS011;70062;51.658;5.658;2023-11-21T07:43:48;3.80;;;2.70;;
80698;SDS011;70062;51.658;5.658;2023-11-21T07:46:14;3.40;;;2.40;;
80698;SDS011;70062;51.658;5.658;2023-11-21T07:48:40;3.60;;;2.70;;
80698;SDS011;70062;51.658;5.658;2023-11-21T07:51:11;4.70;;;2.40;;
80698;SDS011;70062;51.658;5.658;2023-11-21T07:53:38;3.00;;;2.40;;
80698;SDS011;70062;51.658;5.658;2023-11-21T07:56:04;5.60;;;2.40;;
80698;SDS011;70062;51.658;5.658;2023-11-21T07:58:31;2.80;;;2.20;;
80698;SDS011;70062;51.658;5.658;2023-11-21T08:00:58;3.50;;;2.40;;
80698;SDS011;70062;51.658;5.658;2023-11-21T08:03:26;3.60;;;2.40;;
80698;SDS011;70062;51.658;5.658;2023-11-21T08:05:52;4.40;;;2.40;;
80698;SDS011;70062;51.658;5.658;2023-11-21T08:08:18;3.10;;;2.40;;
80698;SDS011;70062;51.658;5.658;2023-11-21T08:10:47;3.00;;;2.30;;
80698;SDS011;70062;51.658;5.658;2023-11-21T08:13:23;3.10;;;2.30;;
80698;SDS011;70062;51.658;5.658;2023-11-21T08:15:55;4.00;;;2.50;;
80698;SDS011;70062;51.658;5.658;2023-11-21T08:18:21;3.40;;;2.50;;
80698;SDS011;70062;51.658;5.658;2023-11-21T08:20:47;4.10;;;2.40;;
80698;SDS011;70062;51.658;5.658;2023-11-21T08:23:18;2.80;;;2.30;;
80698;SDS011;70062;51.658;5.658;2023-11-21T08:25:52;3.50;;;2.30;;
80698;SDS011;70062;51.658;5.658;2023-11-21T08:28:20;4.00;;;2.30;;
80698;SDS011;70062;51.658;5.658;2023-11-21T08:30:51;3.50;;;2.40;;
80698;SDS011;70062;51.658;5.658;2023-11-21T08:33:17;3.40;;;2.30;;
80698;SDS011;70062;51.658;5.658;2023-11-21T08:35:42;3.20;;;2.60;;
80698;SDS011;70062;51.658;5.658;2023-11-21T08:38:08;3.40;;;2.40;;
80698;SDS011;70062;51.658;5.658;2023-11-21T08:40:35;3.40;;;2.40;;
80698;SDS011;70062;51.658;5.658;2023-11-21T08:43:00;4.00;;;2.70;;
80698;SDS011;70062;51.658;5.658;2023-11-21T08:45:25;3.90;;;2.60;;
80698;SDS011;70062;51.658;5.658;2023-11-21T08:47:51;3.30;;;2.50;;
80698;SDS011;70062;51.658;5.658;2023-11-21T08:50:17;4.40;;;2.90;;
80698;SDS011;70062;51.658;5.658;2023-11-21T08:52:44;3.20;;;2.50;;
80698;SDS011;70062;51.658;5.658;2023-11-21T08:55:11;3.60;;;2.40;;
80698;SDS011;70062;51.658;5.658;2023-11-21T09:02:42;3.00;;;2.30;;
80698;SDS011;70062;51.658;5.658;2023-11-21T09:05:12;3.90;;;2.50;;
80698;SDS011;70062;51.658;5.658;2023-11-21T09:07:39;3.10;;;2.50;;
80698;SDS011;70062;51.658;5.658;2023-11-21T09:10:08;3.50;;;2.50;;
80698;SDS011;70062;51.658;5.658;2023-11-21T09:12:40;3.30;;;2.40;;
80698;SDS011;70062;51.658;5.658;2023-11-21T09:15:06;3.90;;;2.70;;
80698;SDS011;70062;51.658;5.658;2023-11-21T09:17:33;3.60;;;2.60;;
80698;SDS011;70062;51.658;5.658;2023-11-21T09:20:02;3.40;;;2.60;;
80698;SDS011;70062;51.658;5.658;2023-11-21T09:22:31;4.40;;;2.80;;
80698;SDS011;70062;51.658;5.658;2023-11-21T09:24:57;4.40;;;2.60;;
80698;SDS011;70062;51.658;5.658;2023-11-21T09:27:22;3.90;;;2.60;;
80698;SDS011;70062;51.658;5.658;2023-11-21T09:29:50;4.40;;;2.50;;
80698;SDS011;70062;51.658;5.658;2023-11-21T09:32:16;3.50;;;2.60;;
80698;SDS011;70062;51.658;5.658;2023-11-21T09:34:43;5.00;;;2.80;;
80698;SDS011;70062;51.658;5.658;2023-11-21T09:37:09;3.80;;;2.60;;
80698;SDS011;70062;51.658;5.658;2023-11-21T09:39:34;3.70;;;2.60;;
80698;SDS011;70062;51.658;5.658;2023-11-21T09:47:26;5.80;;;2.80;;
80698;SDS011;70062;51.658;5.658;2023-11-21T09:49:53;3.30;;;2.40;;
80698;SDS011;70062;51.658;5.658;2023-11-21T09:52:25;3.80;;;2.60;;
80698;SDS011;70062;51.658;5.658;2023-11-21T09:54:52;4.70;;;2.80;;
80698;SDS011;70062;51.658;5.658;2023-11-21T09:57:19;3.50;;;2.80;;
80698;SDS011;70062;51.658;5.658;2023-11-21T09:59:52;5.20;;;2.80;;
80698;SDS011;70062;51.658;5.658;2023-11-21T10:02:27;4.00;;;2.70;;
80698;SDS011;70062;51.658;5.658;2023-11-21T10:04:57;4.70;;;2.70;;
80698;SDS011;70062;51.658;5.658;2023-11-21T10:07:25;5.70;;;2.70;;
80698;SDS011;70062;51.658;5.658;2023-11-21T10:09:51;5.60;;;2.70;;
80698;SDS011;70062;51.658;5.658;2023-11-21T10:12:18;4.70;;;2.60;;
80698;SDS011;70062;51.658;5.658;2023-11-21T10:14:48;5.40;;;3.10;;
80698;SDS011;70062;51.658;5.658;2023-11-21T10:17:14;7.60;;;2.90;;
80698;SDS011;70062;51.658;5.658;2023-11-21T10:19:46;8.60;;;3.20;;
80698;SDS011;70062;51.658;5.658;2023-11-21T10:22:32;6.20;;;3.00;;
80698;SDS011;70062;51.658;5.658;2023-11-21T10:24:58;6.20;;;3.30;;
80698;SDS011;70062;51.658;5.658;2023-11-21T10:27:26;6.40;;;2.90;;
80698;SDS011;70062;51.658;5.658;2023-11-21T10:29:53;6.90;;;3.00;;
80698;SDS011;70062;51.658;5.658;2023-11-21T10:32:18;5.50;;;3.00;;
80698;SDS011;70062;51.658;5.658;2023-11-21T10:34:55;9.70;;;2.90;;
80698;SDS011;70062;51.658;5.658;2023-11-21T10:37:21;10.10;;;3.00;;
80698;SDS011;70062;51.658;5.658;2023-11-21T10:40:43;7.40;;;3.20;;
80698;SDS011;70062;51.658;5.658;2023-11-21T10:43:13;8.50;;;3.10;;
80698;SDS011;70062;51.658;5.658;2023-11-21T10:45:46;7.00;;;3.30;;
80698;SDS011;70062;51.658;5.658;2023-11-21T10:48:13;7.40;;;3.20;;
80698;SDS011;70062;51.658;5.658;2023-11-21T10:50:42;5.80;;;3.10;;
80698;SDS011;70062;51.658;5.658;2023-11-21T10:53:12;7.60;;;2.90;;
80698;SDS011;70062;51.658;5.658;2023-11-21T10:55:45;10.50;;;3.10;;
80698;SDS011;70062;51.658;5.658;2023-11-21T10:58:10;6.50;;;3.10;;
80698;SDS011;70062;51.658;5.658;2023-11-21T11:00:38;6.20;;;3.10;;
80698;SDS011;70062;51.658;5.658;2023-11-21T11:03:05;4.60;;;3.10;;
80698;SDS011;70062;51.658;5.658;2023-11-21T11:05:38;7.10;;;2.80;;
80698;SDS011;70062;51.658;5.658;2023-11-21T11:08:06;6.80;;;3.00;;
80698;SDS011;70062;51.658;5.658;2023-11-21T11:10:35;4.90;;;2.90;;
80698;SDS011;70062;51.658;5.658;2023-11-21T11:13:01;5.60;;;2.70;;
80698;SDS011;70062;51.658;5.658;2023-11-21T11:15:27;7.60;;;3.00;;
80698;SDS011;70062;51.658;5.658;2023-11-21T11:17:53;6.40;;;3.00;;
80698;SDS011;70062;51.658;5.658;2023-11-21T11:20:23;3.80;;;2.80;;
80698;SDS011;70062;51.658;5.658;2023-11-21T11:28:16;5.30;;;3.00;;
80698;SDS011;70062;51.658;5.658;2023-11-21T11:33:45;5.30;;;3.00;;
80698;SDS011;70062;51.658;5.658;2023-11-21T11:36:39;5.20;;;2.80;;
80698;SDS011;70062;51.658;5.658;2023-11-21T11:39:29;8.20;;;2.70;;
80698;SDS011;70062;51.658;5.658;2023-11-21T11:41:57;7.30;;;2.80;;
80698;SDS011;70062;51.658;5.658;2023-11-21T11:50:00;5.70;;;2.90;;
80698;SDS011;70062;51.658;5.658;2023-11-21T11:55:09;6.60;;;2.70;;
80698;SDS011;70062;51.658;5.658;2023-11-21T11:57:43;5.00;;;2.60;;
80698;SDS011;70062;51.658;5.658;2023-11-21T12:02:46;8.10;;;2.90;;
80698;SDS011;70062;51.658;5.658;2023-11-21T12:05:16;7.40;;;2.80;;
80698;SDS011;70062;51.658;5.658;2023-11-21T12:07:49;6.40;;;2.80;;
80698;SDS011;70062;51.658;5.658;2023-11-21T12:13:16;4.60;;;2.90;;
80698;SDS011;70062;51.658;5.658;2023-11-21T12:15:49;5.00;;;3.10;;
80698;SDS011;70062;51.658;5.658;2023-11-21T12:18:22;5.00;;;2.90;;
80698;SDS011;70062;51.658;5.658;2023-11-21T12:20:51;5.20;;;3.20;;
80698;SDS011;70062;51.658;5.658;2023-11-21T12:23:17;6.30;;;3.00;;
80698;SDS011;70062;51.658;5.658;2023-11-21T12:25:43;5.80;;;3.30;;
80698;SDS011;70062;51.658;5.658;2023-11-21T12:28:08;8.20;;;3.90;;
80698;SDS011;70062;51.658;5.658;2023-11-21T12:30:35;10.60;;;3.60;;
80698;SDS011;70062;51.658;5.658;2023-11-21T12:33:08;11.80;;;4.10;;
80698;SDS011;70062;51.658;5.658;2023-11-21T12:35:42;7.40;;;3.90;;
80698;SDS011;70062;51.658;5.658;2023-11-21T12:38:14;13.50;;;4.00;;
80698;SDS011;70062;51.658;5.658;2023-11-21T12:40:50;9.50;;;3.80;;
80698;SDS011;70062;51.658;5.658;2023-11-21T12:43:22;11.30;;;4.50;;
80698;SDS011;70062;51.658;5.658;2023-11-21T12:46:10;9.40;;;4.10;;
80698;SDS011;70062;51.658;5.658;2023-11-21T12:48:47;8.70;;;3.90;;
80698;SDS011;70062;51.658;5.658;2023-11-21T12:51:22;8.60;;;4.20;;
80698;SDS011;70062;51.658;5.658;2023-11-21T12:53:55;9.90;;;4.50;;
80698;SDS011;70062;51.658;5.658;2023-11-21T12:56:31;9.50;;;4.10;;
80698;SDS011;70062;51.658;5.658;2023-11-21T12:59:09;8.90;;;3.80;;
80698;SDS011;70062;51.658;5.658;2023-11-21T13:01:43;11.10;;;4.20;;
80698;SDS011;70062;51.658;5.658;2023-11-21T13:04:08;7.50;;;3.60;;
80698;SDS011;70062;51.658;5.658;2023-11-21T13:06:35;9.90;;;3.80;;
80698;SDS011;70062;51.658;5.658;2023-11-21T13:09:06;8.90;;;3.70;;
80698;SDS011;70062;51.658;5.658;2023-11-21T13:11:36;9.90;;;3.50;;
80698;SDS011;70062;51.658;5.658;2023-11-21T13:14:10;8.20;;;3.70;;
80698;SDS011;70062;51.658;5.658;2023-11-21T13:16:41;9.60;;;4.30;;
80698;SDS011;70062;51.658;5.658;2023-11-21T13:19:14;9.90;;;3.60;;
80698;SDS011;70062;51.658;5.658;2023-11-21T13:21:49;8.00;;;3.40;;
80698;SDS011;70062;51.658;5.658;2023-11-21T13:24:21;11.60;;;3.30;;
80698;SDS011;70062;51.658;5.658;2023-11-21T13:26:55;10.40;;;3.50;;
80698;SDS011;70062;51.658;5.658;2023-11-21T13:29:28;8.70;;;3.60;;
80698;SDS011;70062;51.658;5.658;2023-11-21T13:32:00;6.00;;;3.30;;
80698;SDS011;70062;51.658;5.658;2023-11-21T13:34:32;10.50;;;3.50;;
80698;SDS011;70062;51.658;5.658;2023-11-21T13:37:05;6.20;;;3.30;;
80698;SDS011;70062;51.658;5.658;2023-11-21T13:39:36;6.80;;;3.60;;
80698;SDS011;70062;51.658;5.658;2023-11-21T13:42:09;7.30;;;3.90;;
80698;SDS011;70062;51.658;5.658;2023-11-21T13:44:36;7.30;;;3.60;;
80698;SDS011;70062;51.658;5.658;2023-11-21T13:47:05;7.40;;;3.60;;
80698;SDS011;70062;51.658;5.658;2023-11-21T13:49:31;6.90;;;3.70;;
80698;SDS011;70062;51.658;5.658;2023-11-21T13:52:06;8.00;;;3.70;;
80698;SDS011;70062;51.658;5.658;2023-11-21T13:54:41;6.70;;;3.50;;
80698;SDS011;70062;51.658;5.658;2023-11-21T13:57:07;8.50;;;3.70;;
80698;SDS011;70062;51.658;5.658;2023-11-21T13:59:33;7.50;;;3.50;;
80698;SDS011;70062;51.658;5.658;2023-11-21T14:01:58;7.30;;;3.80;;
80698;SDS011;70062;51.658;5.658;2023-11-21T14:04:37;10.10;;;4.20;;
80698;SDS011;70062;51.658;5.658;2023-11-21T14:07:21;7.50;;;3.70;;
80698;SDS011;70062;51.658;5.658;2023-11-21T14:10:00;7.90;;;4.20;;
80698;SDS011;70062;51.658;5.658;2023-11-21T14:12:28;6.70;;;4.10;;
80698;SDS011;70062;51.658;5.658;2023-11-21T14:15:01;8.80;;;4.50;;
80698;SDS011;70062;51.658;5.658;2023-11-21T14:19:58;7.90;;;4.70;;
80698;SDS011;70062;51.658;5.658;2023-11-21T14:22:30;7.80;;;4.40;;
80698;SDS011;70062;51.658;5.658;2023-11-21T14:25:03;8.70;;;4.10;;
80698;SDS011;70062;51.658;5.658;2023-11-21T14:27:38;7.10;;;4.30;;
80698;SDS011;70062;51.658;5.658;2023-11-21T14:30:10;9.50;;;4.60;;
80698;SDS011;70062;51.658;5.658;2023-11-21T14:32:48;6.20;;;4.10;;
80698;SDS011;70062;51.658;5.658;2023-11-21T14:35:19;6.00;;;4.10;;
80698;SDS011;70062;51.658;5.658;2023-11-21T14:37:49;9.30;;;5.10;;
80698;SDS011;70062;51.658;5.658;2023-11-21T14:40:19;7.80;;;4.50;;
80698;SDS011;70062;51.658;5.658;2023-11-21T14:42:50;10.40;;;4.70;;
80698;SDS011;70062;51.658;5.658;2023-11-21T14:45:22;8.20;;;4.50;;
80698;SDS011;70062;51.658;5.658;2023-11-21T14:47:51;7.90;;;4.60;;
80698;SDS011;70062;51.658;5.658;2023-11-21T14:50:36;8.80;;;5.50;;
80698;SDS011;70062;51.658;5.658;2023-11-21T14:53:01;12.10;;;5.50;;
80698;SDS011;70062;51.658;5.658;2023-11-21T14:55:33;13.00;;;5.40;;
80698;SDS011;70062;51.658;5.658;2023-11-21T14:58:08;8.80;;;5.20;;
80698;SDS011;70062;51.658;5.658;2023-11-21T15:00:40;11.00;;;5.40;;
80698;SDS011;70062;51.658;5.658;2023-11-21T15:03:10;10.80;;;5.80;;
80698;SDS011;70062;51.658;5.658;2023-11-21T15:05:46;10.60;;;6.00;;
80698;SDS011;70062;51.658;5.658;2023-11-21T15:08:19;8.90;;;5.50;;
80698;SDS011;70062;51.658;5.658;2023-11-21T15:10:56;9.30;;;5.90;;
80698;SDS011;70062;51.658;5.658;2023-11-21T15:13:32;10.60;;;6.30;;
80698;SDS011;70062;51.658;5.658;2023-11-21T15:16:15;11.70;;;5.70;;
80698;SDS011;70062;51.658;5.658;2023-11-21T15:18:48;11.10;;;6.00;;
80698;SDS011;70062;51.658;5.658;2023-11-21T15:21:22;10.30;;;6.10;;
80698;SDS011;70062;51.658;5.658;2023-11-21T15:23:54;12.90;;;5.90;;
80698;SDS011;70062;51.658;5.658;2023-11-21T15:26:27;10.30;;;5.60;;
80698;SDS011;70062;51.658;5.658;2023-11-21T15:29:05;9.90;;;6.00;;
80698;SDS011;70062;51.658;5.658;2023-11-21T15:31:45;11.00;;;6.10;;
80698;SDS011;70062;51.658;5.658;2023-11-21T15:34:21;9.10;;;6.00;;
80698;SDS011;70062;51.658;5.658;2023-11-21T15:36:54;10.20;;;5.90;;